Time;durP1;ratioP1;P1;durP2;ratioP2;P2;SDS_P1;SDS_P2;PMS_P1;PMS_P2;Temp;Humidity;BMP_temperature;BMP_pressure;BME280_temperature;BME280_humidity;BME280_pressure;Samples;Min_cycle;Max_cycle;Signal;HPM_P1;HPM_P2
2022/06/23 00:01:05;;;;;;;15.63;7.43;;;;;;;;;;5080542;28;20020;-66
2022/06/23 00:03:34;;;;;;;14.53;7.40;;;;;;;;;;5077021;28;20052;-66
2022/06/23 00:06:01;;;;;;;11.50;6.70;;;;;;;;;;5076275;28;20032;-66
2022/06/23 00:08:26;;;;;;;12.33;6.63;;;;;;;;;;5077020;28;20116;-66
2022/06/23 00:10:53;;;;;;;13.43;7.17;;;;;;;;;;5075504;28;20499;-66
2022/06/23 00:13:25;;;;;;;11.13;6.77;;;;;;;;;;5085257;28;20042;-66
2022/06/23 00:15:51;;;;;;;15.77;7.55;;;;;;;;;;5086842;28;20050;-66
2022/06/23 00:18:16;;;;;;;13.27;7.77;;;;;;;;;;5080582;28;20020;-66
2022/06/23 00:20:56;;;;;;;14.80;7.67;;;;;;;;;;5082348;28;20020;-66
2022/06/23 00:23:21;;;;;;;16.23;8.00;;;;;;;;;;5085218;28;20116;-66
2022/06/23 00:26:07;;;;;;;13.10;7.47;;;;;;;;;;5084618;28;20050;-66
2022/06/23 00:28:41;;;;;;;17.33;7.23;;;;;;;;;;5089935;28;20501;-66
2022/06/23 00:31:19;;;;;;;11.07;7.47;;;;;;;;;;5086914;28;20737;-66
2022/06/23 00:33:44;;;;;;;13.07;7.30;;;;;;;;;;5086675;28;20099;-66
2022/06/23 00:36:33;;;;;;;14.07;7.07;;;;;;;;;;5087805;28;20107;-66
2022/06/23 00:38:58;;;;;;;10.80;6.73;;;;;;;;;;5076118;28;20085;-66
2022/06/23 00:41:28;;;;;;;12.37;7.43;;;;;;;;;;5081340;28;20464;-66
2022/06/23 00:43:53;;;;;;;14.07;7.57;;;;;;;;;;5080653;28;20220;-66
2022/06/23 00:46:35;;;;;;;12.03;7.23;;;;;;;;;;5085089;28;20023;-66
2022/06/23 00:49:01;;;;;;;13.27;7.50;;;;;;;;;;5087201;28;20028;-66
2022/06/23 00:51:36;;;;;;;16.97;8.00;;;;;;;;;;5082882;28;20016;-66
2022/06/23 00:54:19;;;;;;;10.97;7.17;;;;;;;;;;5080385;28;20128;-66
2022/06/23 00:56:51;;;;;;;12.33;7.00;;;;;;;;;;5079564;28;20095;-66
2022/06/23 00:59:16;;;;;;;10.10;6.38;;;;;;;;;;5080205;28;20464;-66
2022/06/23 01:01:46;;;;;;;18.20;6.50;;;;;;;;;;5081815;28;20031;-66
2022/06/23 01:04:17;;;;;;;15.17;7.07;;;;;;;;;;5083827;28;20048;-66
2022/06/23 01:06:48;;;;;;;11.40;6.40;;;;;;;;;;5078228;28;20024;-66
2022/06/23 01:09:19;;;;;;;10.05;5.88;;;;;;;;;;5077527;28;20036;-66
2022/06/23 01:11:47;;;;;;;11.75;6.60;;;;;;;;;;5084464;28;20147;-66
2022/06/23 01:14:21;;;;;;;10.60;6.60;;;;;;;;;;5073184;28;20032;-66
2022/06/23 01:16:48;;;;;;;11.40;6.60;;;;;;;;;;5087464;28;20100;-66
2022/06/23 01:19:19;;;;;;;14.00;6.70;;;;;;;;;;5079467;28;20064;-66
2022/06/23 01:21:47;;;;;;;11.15;7.07;;;;;;;;;;5076007;28;20115;-66
2022/06/23 01:24:30;;;;;;;14.70;7.00;;;;;;;;;;5083809;28;20124;-66
2022/06/23 01:27:01;;;;;;;11.40;7.50;;;;;;;;;;5075751;28;20043;-66
2022/06/23 01:29:29;;;;;;;12.30;7.60;;;;;;;;;;5075330;28;20384;-66
2022/06/23 01:31:57;;;;;;;13.20;7.23;;;;;;;;;;5083058;28;20031;-66
2022/06/23 01:34:22;;;;;;;10.73;7.27;;;;;;;;;;5076899;28;20333;-66
2022/06/23 01:37:02;;;;;;;12.00;7.53;;;;;;;;;;5078368;28;20031;-66
2022/06/23 01:39:37;;;;;;;14.40;7.83;;;;;;;;;;5073670;28;20016;-66
2022/06/23 01:42:11;;;;;;;12.87;7.43;;;;;;;;;;5077898;28;20075;-65
2022/06/23 01:44:46;;;;;;;12.57;7.73;;;;;;;;;;5083441;28;20379;-66
2022/06/23 01:47:13;;;;;;;12.87;8.10;;;;;;;;;;5080100;28;20438;-66
2022/06/23 01:49:41;;;;;;;15.47;8.80;;;;;;;;;;5079723;28;20376;-66
2022/06/23 01:52:11;;;;;;;13.70;8.17;;;;;;;;;;5083887;28;20032;-66
2022/06/23 01:54:37;;;;;;;12.80;8.50;;;;;;;;;;5076806;28;20032;-65
2022/06/23 01:57:08;;;;;;;13.73;8.50;;;;;;;;;;5081308;28;20020;-65
2022/06/23 01:59:39;;;;;;;13.20;8.95;;;;;;;;;;5079693;28;20024;-66
2022/06/23 02:02:10;;;;;;;13.45;8.75;;;;;;;;;;5077149;28;20381;-66
2022/06/23 02:04:36;;;;;;;14.30;9.00;;;;;;;;;;5078847;28;20483;-66
2022/06/23 02:07:15;;;;;;;14.07;8.47;;;;;;;;;;5082719;28;20063;-65
2022/06/23 02:09:45;;;;;;;14.13;8.13;;;;;;;;;;5073733;28;20051;-65
2022/06/23 02:12:30;;;;;;;12.77;8.40;;;;;;;;;;5081480;28;20098;-66
2022/06/23 02:15:01;;;;;;;17.30;9.00;;;;;;;;;;5072491;28;20028;-66
2022/06/23 02:17:38;;;;;;;15.90;8.97;;;;;;;;;;5078106;28;20027;-66
2022/06/23 02:20:24;;;;;;;14.00;8.70;;;;;;;;;;5080899;28;20027;-66
2022/06/23 02:22:58;;;;;;;14.13;9.03;;;;;;;;;;5075462;28;20492;-66
2022/06/23 02:25:26;;;;;;;12.83;9.00;;;;;;;;;;5080476;28;20020;-65
2022/06/23 02:28:03;;;;;;;13.53;9.20;;;;;;;;;;5074649;28;20154;-66
2022/06/23 02:30:29;;;;;;;13.03;8.67;;;;;;;;;;5073278;28;20036;-66
2022/06/23 02:33:01;;;;;;;17.90;8.93;;;;;;;;;;5080544;28;20040;-66
2022/06/23 02:35:32;;;;;;;14.75;8.85;;;;;;;;;;5085581;28;20035;-66
2022/06/23 02:38:07;;;;;;;15.20;8.52;;;;;;;;;;5077305;28;20032;-66
2022/06/23 02:40:43;;;;;;;12.83;8.73;;;;;;;;;;5084650;28;20097;-66
2022/06/23 02:43:11;;;;;;;14.23;8.63;;;;;;;;;;5081915;28;20056;-66
2022/06/23 02:45:55;;;;;;;14.37;8.93;;;;;;;;;;5073995;28;20027;-66
2022/06/23 02:48:24;;;;;;;13.97;9.10;;;;;;;;;;5076929;28;20028;-66
2022/06/23 02:50:55;;;;;;;15.33;9.17;;;;;;;;;;5082968;28;20047;-66
2022/06/23 02:53:32;;;;;;;13.32;8.90;;;;;;;;;;5079919;28;20059;-66
2022/06/23 02:56:06;;;;;;;14.83;9.20;;;;;;;;;;5077827;28;20020;-66
2022/06/23 02:58:40;;;;;;;15.13;9.97;;;;;;;;;;5081460;28;20024;-66
2022/06/23 03:01:22;;;;;;;15.93;9.93;;;;;;;;;;5076346;28;20361;-66
2022/06/23 03:04:10;;;;;;;16.70;10.02;;;;;;;;;;5083918;28;20024;-66
2022/06/23 03:06:38;;;;;;;14.50;9.40;;;;;;;;;;5082620;28;20028;-66
2022/06/23 03:09:07;;;;;;;14.43;10.00;;;;;;;;;;5075167;28;20016;-66
2022/06/23 03:11:54;;;;;;;17.17;9.63;;;;;;;;;;5084424;28;20023;-66
2022/06/23 03:14:34;;;;;;;15.97;9.57;;;;;;;;;;5078132;28;20020;-66
2022/06/23 03:17:20;;;;;;;15.60;9.70;;;;;;;;;;5079916;28;20012;-66
2022/06/23 03:19:59;;;;;;;13.13;9.53;;;;;;;;;;5080381;28;20028;-67
2022/06/23 03:22:34;;;;;;;15.67;9.43;;;;;;;;;;5083179;28;20052;-67
2022/06/23 03:25:18;;;;;;;12.53;9.17;;;;;;;;;;5074418;28;20028;-67
2022/06/23 03:27:51;;;;;;;14.83;8.93;;;;;;;;;;5074109;28;20016;-66
2022/06/23 03:30:19;;;;;;;15.10;9.63;;;;;;;;;;5081735;28;20027;-66
2022/06/23 03:32:46;;;;;;;13.83;9.00;;;;;;;;;;5078482;28;20058;-67
2022/06/23 03:35:20;;;;;;;17.87;9.70;;;;;;;;;;5080351;28;20040;-67
2022/06/23 03:37:50;;;;;;;17.20;9.70;;;;;;;;;;5076848;28;20025;-66
2022/06/23 03:43:21;;;;;;;15.13;9.73;;;;;;;;;;5076955;28;20023;-66
2022/06/23 03:45:57;;;;;;;15.73;9.43;;;;;;;;;;5079845;28;20032;-67
2022/06/23 03:48:27;;;;;;;13.10;8.87;;;;;;;;;;5079295;28;20024;-67
2022/06/23 03:50:55;;;;;;;29.23;8.87;;;;;;;;;;5074899;28;20024;-67
2022/06/23 03:53:23;;;;;;;26.60;8.10;;;;;;;;;;5073366;28;20075;-67
2022/06/23 03:55:50;;;;;;;12.87;7.93;;;;;;;;;;5078727;28;20063;-66
2022/06/23 03:58:21;;;;;;;13.17;7.43;;;;;;;;;;5079560;28;20032;-66
2022/06/23 04:00:58;;;;;;;13.18;7.60;;;;;;;;;;5082802;28;20127;-66
2022/06/23 04:03:35;;;;;;;10.93;7.87;;;;;;;;;;5075050;28;20412;-66
2022/06/23 04:06:10;;;;;;;12.20;7.50;;;;;;;;;;5079909;28;20394;-66
2022/06/23 04:08:42;;;;;;;14.27;7.07;;;;;;;;;;5075058;28;20025;-66
2022/06/23 04:13:55;;;;;;;10.80;6.47;;;;;;;;;;5076732;28;20115;-67
2022/06/23 04:16:22;;;;;;;11.33;5.27;;;;;;;;;;5080385;28;20020;-67
2022/06/23 04:18:47;;;;;;;9.73;6.00;;;;;;;;;;5079275;28;20020;-67
2022/06/23 04:21:15;;;;;;;7.93;5.33;;;;;;;;;;5071169;28;20096;-67
2022/06/23 04:23:43;;;;;;;9.52;5.30;;;;;;;;;;5070858;28;20376;-67
2022/06/23 04:26:14;;;;;;;10.15;5.40;;;;;;;;;;5081451;28;20391;-67
2022/06/23 04:28:42;;;;;;;7.43;5.10;;;;;;;;;;5080993;28;20472;-67
2022/06/23 04:31:08;;;;;;;45.40;6.70;;;;;;;;;;5083348;28;20028;-67
2022/06/23 04:33:40;;;;;;;15.13;5.30;;;;;;;;;;5082058;28;20020;-67
2022/06/23 04:36:05;;;;;;;;;;;;;;;;;;5077799;28;20077;-67
2022/06/23 04:38:35;;;;;;;7.82;4.80;;;;;;;;;;5081384;28;19912;-66
2022/06/23 04:41:10;;;;;;;9.70;5.23;;;;;;;;;;5090373;28;20024;-67
2022/06/23 04:43:39;;;;;;;8.23;5.20;;;;;;;;;;5082977;28;20048;-67
2022/06/23 04:46:30;;;;;;;8.02;5.45;;;;;;;;;;5079650;28;20031;-67
2022/06/23 04:48:58;;;;;;;13.20;5.95;;;;;;;;;;5062520;28;20039;-67
2022/06/23 04:51:23;;;;;;;8.15;5.22;;;;;;;;;;5075733;28;20035;-67
2022/06/23 04:54:24;;;;;;;8.00;5.38;;;;;;;;;;5079088;28;20039;-67
2022/06/23 04:56:52;;;;;;;11.25;6.65;;;;;;;;;;5041182;28;20801;-68
2022/06/23 04:59:28;;;;;;;7.70;5.40;;;;;;;;;;5043026;28;20033;-66
2022/06/23 05:01:56;;;;;;;10.73;5.65;;;;;;;;;;5036831;28;20108;-67
2022/06/23 05:04:32;;;;;;;9.40;5.35;;;;;;;;;;5032742;28;20524;-67
2022/06/23 05:06:58;;;;;;;9.18;5.18;;;;;;;;;;5037407;28;20057;-67
2022/06/23 05:09:27;;;;;;;9.00;5.43;;;;;;;;;;5031356;28;20053;-66
2022/06/23 05:11:55;;;;;;;9.00;5.40;;;;;;;;;;5037132;28;20033;-67
2022/06/23 05:14:27;;;;;;;11.02;5.68;;;;;;;;;;5038651;28;20053;-67
2022/06/23 05:16:54;;;;;;;7.97;5.35;;;;;;;;;;5032535;28;20095;-66
2022/06/23 05:19:31;;;;;;;10.23;5.75;;;;;;;;;;5033476;28;20013;-67
2022/06/23 05:21:59;;;;;;;11.02;5.60;;;;;;;;;;5037401;28;20026;-67
2022/06/23 05:24:27;;;;;;;8.35;5.07;;;;;;;;;;5037180;28;20033;-66
2022/06/23 05:27:00;;;;;;;9.75;5.10;;;;;;;;;;5034359;28;20024;-67
2022/06/23 05:29:25;;;;;;;8.27;5.10;;;;;;;;;;5041752;28;20033;-67
2022/06/23 05:31:52;;;;;;;9.40;5.13;;;;;;;;;;5071488;28;20036;-67
2022/06/23 05:34:22;;;;;;;11.32;5.28;;;;;;;;;;5074172;28;20089;-66
2022/06/23 05:36:56;;;;;;;8.45;5.18;;;;;;;;;;5077870;28;20113;-67
2022/06/23 05:39:24;;;;;;;8.88;5.57;;;;;;;;;;5073449;28;20016;-67
2022/06/23 05:41:52;;;;;;;13.85;5.38;;;;;;;;;;5081980;28;20024;-67
2022/06/23 05:44:22;;;;;;;8.80;5.45;;;;;;;;;;5081805;28;20024;-67
2022/06/23 05:46:48;;;;;;;8.57;4.90;;;;;;;;;;5079399;28;20487;-67
2022/06/23 05:49:18;;;;;;;8.50;5.50;;;;;;;;;;5076586;28;20039;-66
2022/06/23 05:52:01;;;;;;;7.60;5.10;;;;;;;;;;5077055;28;20050;-66
2022/06/23 05:54:38;;;;;;;9.80;5.30;;;;;;;;;;5072436;28;20029;-67
2022/06/23 05:57:09;;;;;;;10.43;5.85;;;;;;;;;;5072689;28;20031;-67
2022/06/23 05:59:53;;;;;;;10.60;5.03;;;;;;;;;;5072658;28;20145;-67
2022/06/23 06:02:33;;;;;;;10.18;5.13;;;;;;;;;;5086346;28;20443;-67
2022/06/23 06:05:00;;;;;;;8.90;5.35;;;;;;;;;;5077728;28;20119;-67
2022/06/23 06:07:27;;;;;;;11.00;4.85;;;;;;;;;;5073058;28;20389;-67
2022/06/23 06:09:53;;;;;;;8.10;4.85;;;;;;;;;;5075298;28;20021;-67
2022/06/23 06:12:21;;;;;;;10.98;5.00;;;;;;;;;;5071180;28;20039;-67
2022/06/23 06:14:48;;;;;;;11.57;4.70;;;;;;;;;;5086314;28;20028;-67
2022/06/23 06:17:21;;;;;;;10.68;4.72;;;;;;;;;;5083657;28;20028;-67
2022/06/23 06:19:47;;;;;;;8.70;4.32;;;;;;;;;;5089852;28;20019;-66
2022/06/23 06:22:30;;;;;;;9.35;4.45;;;;;;;;;;5080747;28;20030;-67
2022/06/23 06:24:57;;;;;;;7.18;4.43;;;;;;;;;;5072388;28;20039;-67
2022/06/23 06:27:22;;;;;;;7.72;4.22;;;;;;;;;;5083823;28;20452;-66
2022/06/23 06:29:48;;;;;;;7.90;4.38;;;;;;;;;;5092711;28;20075;-67
2022/06/23 06:32:13;;;;;;;9.45;3.97;;;;;;;;;;5091125;28;20020;-66
2022/06/23 06:34:39;;;;;;;23.60;4.38;;;;;;;;;;5086617;28;20020;-66
2022/06/23 06:37:07;;;;;;;9.43;4.10;;;;;;;;;;5090669;28;20111;-66
2022/06/23 06:39:35;;;;;;;6.88;3.75;;;;;;;;;;5092020;28;20024;-67
2022/06/23 06:42:03;;;;;;;7.07;3.90;;;;;;;;;;5091173;28;20038;-67
2022/06/23 06:44:30;;;;;;;10.85;4.07;;;;;;;;;;5087468;28;21057;-67
2022/06/23 06:46:55;;;;;;;7.85;3.90;;;;;;;;;;5071625;28;20027;-67
2022/06/23 06:49:22;;;;;;;8.88;3.70;;;;;;;;;;5074207;28;20464;-67
2022/06/23 06:51:48;;;;;;;10.95;3.65;;;;;;;;;;5073614;28;20043;-67
2022/06/23 06:54:18;;;;;;;6.82;3.80;;;;;;;;;;5088607;28;20051;-67
2022/06/23 06:56:45;;;;;;;10.23;3.45;;;;;;;;;;5090801;28;20025;-67
2022/06/23 06:59:33;;;;;;;8.80;4.07;;;;;;;;;;5091924;28;20519;-66
2022/06/23 07:02:00;;;;;;;6.38;3.20;;;;;;;;;;5075402;28;20020;-67
2022/06/23 07:04:30;;;;;;;6.88;3.47;;;;;;;;;;5073583;28;20016;-68
2022/06/23 07:06:58;;;;;;;7.05;3.30;;;;;;;;;;5072383;28;20033;-67
2022/06/23 07:09:26;;;;;;;8.35;3.35;;;;;;;;;;5071513;28;20035;-67
2022/06/23 07:12:03;;;;;;;7.65;3.10;;;;;;;;;;5079957;28;20036;-67
2022/06/23 07:14:31;;;;;;;5.80;2.92;;;;;;;;;;5091652;28;20084;-67
2022/06/23 07:17:01;;;;;;;8.10;3.50;;;;;;;;;;5086179;28;20567;-67
2022/06/23 07:19:34;;;;;;;6.53;3.07;;;;;;;;;;5087083;28;20019;-67
2022/06/23 07:22:05;;;;;;;5.18;3.00;;;;;;;;;;5083472;28;20603;-67
2022/06/23 07:24:30;;;;;;;6.07;3.22;;;;;;;;;;5091842;28;20607;-67
2022/06/23 07:27:04;;;;;;;7.55;3.20;;;;;;;;;;5090437;28;20053;-67
2022/06/23 07:29:30;;;;;;;7.20;3.10;;;;;;;;;;5088015;28;20020;-66
2022/06/23 07:31:55;;;;;;;6.63;2.97;;;;;;;;;;5089897;28;20051;-66
2022/06/23 07:34:21;;;;;;;5.30;2.90;;;;;;;;;;5084079;28;20777;-67
2022/06/23 07:36:51;;;;;;;7.60;2.60;;;;;;;;;;5078976;28;20297;-67
2022/06/23 07:39:18;;;;;;;5.93;2.60;;;;;;;;;;5089959;28;20027;-67
2022/06/23 07:42:02;;;;;;;6.70;2.60;;;;;;;;;;5091616;28;20031;-67
2022/06/23 07:44:28;;;;;;;7.68;2.53;;;;;;;;;;5090316;28;20020;-67
2022/06/23 07:46:54;;;;;;;4.88;2.40;;;;;;;;;;5090984;28;20671;-67
2022/06/23 07:49:19;;;;;;;6.03;2.70;;;;;;;;;;5083866;28;20020;-67
2022/06/23 07:51:44;;;;;;;7.18;3.00;;;;;;;;;;5081182;28;20020;-67
2022/06/23 07:54:14;;;;;;;6.47;2.50;;;;;;;;;;5091408;28;20028;-66
2022/06/23 07:56:39;;;;;;;6.47;2.75;;;;;;;;;;5076088;28;20025;-67
2022/06/23 07:59:07;;;;;;;5.38;2.35;;;;;;;;;;5077121;28;20032;-67
2022/06/23 08:01:38;;;;;;;7.15;2.58;;;;;;;;;;5088739;28;20089;-67
2022/06/23 08:04:03;;;;;;;;;;;;;;;;;;5088127;28;20051;-67
2022/06/23 08:06:29;;;;;;;5.75;2.30;;;;;;;;;;5071857;28;19939;-66
2022/06/23 08:08:56;;;;;;;5.85;2.72;;;;;;;;;;5071636;28;20028;-67
2022/06/23 08:14:35;;;;;;;7.35;1.90;;;;;;;;;;5094052;28;20039;-67
2022/06/23 08:17:06;;;;;;;5.20;2.15;;;;;;;;;;5072268;28;20055;-67
2022/06/23 08:19:31;;;;;;;5.85;2.13;;;;;;;;;;5085419;28;20021;-68
2022/06/23 08:22:02;;;;;;;6.57;2.20;;;;;;;;;;5074979;28;20115;-67
2022/06/23 08:24:28;;;;;;;8.57;2.28;;;;;;;;;;5091765;28;20351;-66
2022/06/23 08:26:57;;;;;;;4.85;1.90;;;;;;;;;;5094951;28;20032;-67
2022/06/23 08:29:24;;;;;;;6.40;2.70;;;;;;;;;;5093530;28;20038;-66
2022/06/23 08:31:49;;;;;;;6.32;2.30;;;;;;;;;;5094826;28;20016;-67
2022/06/23 08:34:15;;;;;;;6.63;2.28;;;;;;;;;;5087301;28;20070;-67
2022/06/23 08:36:48;;;;;;;6.70;2.10;;;;;;;;;;5092795;28;20028;-66
2022/06/23 08:39:20;;;;;;;5.88;2.00;;;;;;;;;;5093188;28;20012;-67
2022/06/23 08:41:54;;;;;;;5.18;2.17;;;;;;;;;;5094768;28;20024;-66
2022/06/23 08:44:29;;;;;;;7.68;2.20;;;;;;;;;;5093289;28;20020;-68
2022/06/23 08:46:54;;;;;;;10.75;1.80;;;;;;;;;;5092835;28;20016;-67
2022/06/23 08:49:32;;;;;;;5.93;2.00;;;;;;;;;;5085648;28;20012;-67
2022/06/23 08:52:02;;;;;;;5.93;1.70;;;;;;;;;;5075263;28;20289;-66
2022/06/23 08:54:30;;;;;;;6.68;1.90;;;;;;;;;;5082724;28;20472;-67
2022/06/23 08:57:07;;;;;;;4.80;1.60;;;;;;;;;;5090183;28;20092;-67
2022/06/23 08:59:37;;;;;;;6.93;1.95;;;;;;;;;;5084085;28;20020;-67
2022/06/23 09:02:11;;;;;;;5.07;1.65;;;;;;;;;;5074223;28;20106;-66
2022/06/23 09:05:11;;;;;;;6.75;1.70;;;;;;;;;;5082804;28;20031;-67
2022/06/23 09:07:40;;;;;;;4.50;1.60;;;;;;;;;;5051308;28;20469;-68
2022/06/23 09:10:08;;;;;;;5.68;1.40;;;;;;;;;;5050589;28;20032;-67
2022/06/23 09:12:38;;;;;;;6.25;1.48;;;;;;;;;;5051474;28;20397;-67
2022/06/23 09:15:03;;;;;;;;;;;;;;;;;;5035461;28;20523;-67
2022/06/23 09:17:47;;;;;;;6.35;1.40;;;;;;;;;;5032085;28;19988;-67
2022/06/23 09:20:23;;;;;;;3.42;1.48;;;;;;;;;;5045963;28;20388;-67
2022/06/23 09:22:51;;;;;;;5.45;1.58;;;;;;;;;;5050962;28;20029;-67
2022/06/23 09:25:17;;;;;;;6.28;1.60;;;;;;;;;;5050519;28;20432;-67
2022/06/23 09:27:42;;;;;;;6.60;1.60;;;;;;;;;;5050919;28;20025;-68
2022/06/23 09:30:17;;;;;;;3.23;1.40;;;;;;;;;;5049622;28;20404;-67
2022/06/23 09:32:57;;;;;;;3.63;1.20;;;;;;;;;;5047654;28;20029;-72
2022/06/23 09:35:40;;;;;;;4.03;1.40;;;;;;;;;;5038478;28;20116;-68
2022/06/23 09:38:08;;;;;;;4.07;1.42;;;;;;;;;;5033240;28;20021;-68
2022/06/23 09:40:36;;;;;;;3.75;1.40;;;;;;;;;;5038840;28;20473;-68
2022/06/23 09:43:20;;;;;;;3.85;1.48;;;;;;;;;;5076911;28;20085;-68
2022/06/23 09:45:46;;;;;;;3.83;1.30;;;;;;;;;;5076315;28;20016;-67
2022/06/23 09:48:20;;;;;;;3.17;1.40;;;;;;;;;;5073030;28;20037;-67
2022/06/23 09:50:45;;;;;;;5.28;1.27;;;;;;;;;;5082178;28;20476;-67
2022/06/23 09:53:29;;;;;;;4.63;1.33;;;;;;;;;;5080911;28;20035;-68
2022/06/23 09:56:21;;;;;;;4.72;1.42;;;;;;;;;;5074146;28;20290;-67
2022/06/23 09:58:47;;;;;;;5.30;1.20;;;;;;;;;;5074326;28;20027;-66
2022/06/23 10:01:21;;;;;;;3.72;1.30;;;;;;;;;;5082659;28;20103;-68
2022/06/23 10:03:50;;;;;;;5.43;1.40;;;;;;;;;;5077095;28;20020;-68
2022/06/23 10:06:15;;;;;;;4.00;1.33;;;;;;;;;;5086498;28;20096;-67
2022/06/23 10:08:46;;;;;;;5.97;1.47;;;;;;;;;;5092765;28;20023;-68
2022/06/23 10:11:13;;;;;;;4.57;1.30;;;;;;;;;;5089952;28;20034;-67
2022/06/23 10:13:41;;;;;;;4.20;1.20;;;;;;;;;;5091172;28;20031;-66
2022/06/23 10:16:32;;;;;;;6.22;1.40;;;;;;;;;;5083269;28;20016;-67
2022/06/23 10:19:06;;;;;;;7.03;1.55;;;;;;;;;;5090693;28;20032;-68
2022/06/23 10:21:40;;;;;;;3.33;1.20;;;;;;;;;;5074116;28;20055;-68
2022/06/23 10:24:24;;;;;;;6.18;1.25;;;;;;;;;;5083578;28;20035;-68
2022/06/23 10:26:49;;;;;;;3.55;1.50;;;;;;;;;;5079268;28;20016;-66
2022/06/23 10:29:14;;;;;;;4.20;1.30;;;;;;;;;;5084369;28;20024;-67
2022/06/23 10:31:53;;;;;;;5.03;1.30;;;;;;;;;;5084718;28;20274;-67
2022/06/23 10:34:21;;;;;;;4.20;1.15;;;;;;;;;;5082144;28;20381;-67
2022/06/23 10:36:52;;;;;;;4.65;1.20;;;;;;;;;;5092194;28;20027;-68
2022/06/23 10:39:20;;;;;;;3.13;1.00;;;;;;;;;;5089684;28;20020;-67
2022/06/23 10:41:45;;;;;;;3.95;1.00;;;;;;;;;;5072160;28;20021;-66
2022/06/23 10:44:11;;;;;;;3.92;1.10;;;;;;;;;;5071947;28;20345;-68
2022/06/23 10:46:42;;;;;;;3.00;1.10;;;;;;;;;;5072218;28;20035;-67
2022/06/23 10:49:22;;;;;;;3.45;1.05;;;;;;;;;;5090368;28;20043;-67
2022/06/23 10:51:48;;;;;;;;;;;;;;;;;;5072078;28;20085;-67
2022/06/23 10:54:13;;;;;;;4.57;1.10;;;;;;;;;;5071761;28;19908;-67
2022/06/23 10:56:41;;;;;;;4.20;1.47;;;;;;;;;;5071406;28;20073;-67
2022/06/23 10:59:06;;;;;;;5.38;1.20;;;;;;;;;;5078106;28;20266;-66
2022/06/23 11:01:34;;;;;;;4.57;1.20;;;;;;;;;;5088188;28;20465;-67
2022/06/23 11:04:13;;;;;;;8.35;1.35;;;;;;;;;;5076157;28;20314;-67
2022/06/23 11:07:03;;;;;;;15.75;1.70;;;;;;;;;;5071574;28;20020;-68
2022/06/23 11:09:28;;;;;;;5.90;1.23;;;;;;;;;;5089342;28;20056;-67
2022/06/23 11:12:00;;;;;;;6.97;1.20;;;;;;;;;;5077482;28;20019;-66
2022/06/23 11:14:40;;;;;;;4.78;1.20;;;;;;;;;;5078415;28;20815;-67
2022/06/23 11:17:14;;;;;;;5.50;1.10;;;;;;;;;;5074365;28;20047;-68
2022/06/23 11:19:51;;;;;;;3.70;0.98;;;;;;;;;;5071023;28;20043;-67
2022/06/23 11:22:26;;;;;;;4.80;1.40;;;;;;;;;;5071536;28;20031;-67
2022/06/23 11:24:54;;;;;;;3.50;1.13;;;;;;;;;;5088981;28;20032;-66
2022/06/23 11:27:39;;;;;;;2.00;1.00;;;;;;;;;;5089735;28;20054;-67
2022/06/23 11:30:13;;;;;;;4.57;1.00;;;;;;;;;;5087247;28;20039;-66
2022/06/23 11:32:48;;;;;;;4.13;1.13;;;;;;;;;;5073887;28;20722;-67
2022/06/23 11:35:13;;;;;;;2.35;1.20;;;;;;;;;;5074873;28;20028;-66
2022/06/23 11:37:57;;;;;;;2.67;1.10;;;;;;;;;;5091438;28;20016;-66
2022/06/23 11:40:37;;;;;;;12.80;1.60;;;;;;;;;;5090431;28;20672;-66
2022/06/23 11:43:22;;;;;;;4.55;1.30;;;;;;;;;;5075033;28;20016;-67
2022/06/23 11:46:00;;;;;;;6.22;1.30;;;;;;;;;;5074394;28;20039;-66
2022/06/23 11:48:25;;;;;;;3.58;1.13;;;;;;;;;;5094111;28;20028;-67
2022/06/23 11:50:50;;;;;;;6.73;1.10;;;;;;;;;;5095283;28;20036;-68
2022/06/23 11:53:28;;;;;;;2.87;1.10;;;;;;;;;;5092669;28;20262;-66
2022/06/23 11:55:58;;;;;;;2.35;0.95;;;;;;;;;;5086665;28;20373;-66
2022/06/23 11:58:43;;;;;;;2.85;0.90;;;;;;;;;;5075366;28;20013;-66
2022/06/23 12:01:15;;;;;;;2.95;1.08;;;;;;;;;;5091117;28;20379;-66
2022/06/23 12:03:40;;;;;;;5.03;0.95;;;;;;;;;;5090813;28;20027;-66
2022/06/23 12:06:17;;;;;;;5.57;1.20;;;;;;;;;;5075376;28;20012;-66
2022/06/23 12:08:51;;;;;;;4.65;1.38;;;;;;;;;;5078609;28;20053;-66
2022/06/23 12:11:17;;;;;;;2.97;1.20;;;;;;;;;;5075312;28;20393;-66
2022/06/23 12:13:42;;;;;;;4.03;1.10;;;;;;;;;;5074372;28;20017;-66
2022/06/23 12:16:08;;;;;;;2.40;1.00;;;;;;;;;;5077406;28;20396;-66
2022/06/23 12:18:40;;;;;;;3.30;1.00;;;;;;;;;;5086084;28;20430;-66
2022/06/23 12:21:06;;;;;;;2.40;1.00;;;;;;;;;;5091900;28;20076;-66
2022/06/23 12:23:34;;;;;;;5.40;1.13;;;;;;;;;;5092769;28;20095;-66
2022/06/23 12:26:02;;;;;;;3.95;1.00;;;;;;;;;;5094919;28;20264;-66
2022/06/23 12:28:30;;;;;;;3.38;1.08;;;;;;;;;;5092802;28;20569;-66
2022/06/23 12:31:04;;;;;;;3.92;1.27;;;;;;;;;;5086798;28;20021;-66
2022/06/23 12:33:33;;;;;;;5.13;1.20;;;;;;;;;;5083627;28;20028;-65
2022/06/23 12:36:08;;;;;;;4.65;1.20;;;;;;;;;;5094706;28;20020;-66
2022/06/23 12:38:33;;;;;;;2.45;1.17;;;;;;;;;;5093636;28;20073;-66
2022/06/23 12:41:01;;;;;;;4.23;0.90;;;;;;;;;;5094692;28;20379;-66
2022/06/23 12:43:41;;;;;;;5.65;1.00;;;;;;;;;;5085982;28;20487;-66
2022/06/23 12:46:15;;;;;;;3.40;1.23;;;;;;;;;;5079690;28;20066;-66
2022/06/23 12:49:03;;;;;;;2.95;1.10;;;;;;;;;;5093011;28;20387;-65
2022/06/23 12:51:41;;;;;;;2.35;1.10;;;;;;;;;;5088378;28;20043;-66
2022/06/23 12:54:19;;;;;;;4.43;1.10;;;;;;;;;;5091172;28;20048;-66
2022/06/23 12:57:03;;;;;;;5.03;1.08;;;;;;;;;;5089720;28;20028;-67
2022/06/23 12:59:32;;;;;;;3.38;1.02;;;;;;;;;;5088080;28;20027;-66
2022/06/23 13:02:00;;;;;;;3.73;0.90;;;;;;;;;;5081743;28;20024;-66
2022/06/23 13:04:40;;;;;;;2.85;1.17;;;;;;;;;;5087303;28;20028;-66
2022/06/23 13:07:25;;;;;;;2.85;1.00;;;;;;;;;;5094433;28;20464;-66
2022/06/23 13:09:57;;;;;;;5.60;0.90;;;;;;;;;;5080501;28;20063;-66
2022/06/23 13:12:30;;;;;;;2.20;1.02;;;;;;;;;;5073817;28;20012;-66
2022/06/23 13:15:00;;;;;;;3.03;1.00;;;;;;;;;;5088812;28;20150;-66
2022/06/23 13:17:26;;;;;;;6.03;1.05;;;;;;;;;;5076594;28;20074;-66
2022/06/23 13:19:56;;;;;;;4.30;1.10;;;;;;;;;;5089124;28;20028;-66
2022/06/23 13:22:22;;;;;;;2.63;0.90;;;;;;;;;;5089885;28;21992;-65
2022/06/23 13:24:53;;;;;;;2.20;0.88;;;;;;;;;;5093817;28;20081;-66
2022/06/23 13:27:20;;;;;;;3.22;1.00;;;;;;;;;;5081496;28;20028;-66
2022/06/23 13:29:48;;;;;;;3.53;1.02;;;;;;;;;;5073604;28;20028;-65
2022/06/23 13:32:17;;;;;;;4.10;1.10;;;;;;;;;;5083943;28;20047;-65
2022/06/23 13:35:05;;;;;;;3.63;1.00;;;;;;;;;;5090022;28;20020;-66
2022/06/23 13:37:42;;;;;;;4.15;1.20;;;;;;;;;;5085860;28;20496;-66
2022/06/23 13:40:07;;;;;;;5.40;1.00;;;;;;;;;;5073937;28;20027;-66
2022/06/23 13:42:39;;;;;;;3.58;1.20;;;;;;;;;;5074716;28;20447;-66
2022/06/23 13:45:13;;;;;;;3.65;1.00;;;;;;;;;;5082292;28;20052;-66
2022/06/23 13:47:59;;;;;;;3.20;0.90;;;;;;;;;;5079877;28;20392;-66
2022/06/23 13:50:30;;;;;;;3.17;1.15;;;;;;;;;;5072724;28;20111;-66
2022/06/23 13:53:05;;;;;;;4.88;1.00;;;;;;;;;;5087508;28;20036;-65
2022/06/23 13:55:36;;;;;;;4.13;1.23;;;;;;;;;;5090841;28;20024;-65
2022/06/23 13:58:06;;;;;;;3.30;1.10;;;;;;;;;;5089658;28;20372;-66
2022/06/23 14:00:31;;;;;;;4.32;0.90;;;;;;;;;;5089000;28;21618;-65
2022/06/23 14:03:02;;;;;;;3.03;1.10;;;;;;;;;;5074744;28;20086;-66
2022/06/23 14:05:30;;;;;;;2.75;1.10;;;;;;;;;;5072625;28;20283;-65
2022/06/23 14:07:58;;;;;;;3.95;1.00;;;;;;;;;;5072528;28;20029;-66
2022/06/23 14:10:31;;;;;;;3.50;0.93;;;;;;;;;;5072651;28;20509;-66
2022/06/23 14:13:09;;;;;;;7.95;0.90;;;;;;;;;;5072856;28;20537;-67
2022/06/23 14:15:40;;;;;;;4.90;1.10;;;;;;;;;;5072552;28;20644;-66
2022/06/23 14:18:24;;;;;;;5.97;0.93;;;;;;;;;;5092597;28;20016;-66
2022/06/23 14:20:58;;;;;;;3.50;1.00;;;;;;;;;;5091541;28;20026;-66
2022/06/23 14:23:26;;;;;;;2.25;0.88;;;;;;;;;;5092859;28;20107;-66
2022/06/23 14:26:07;;;;;;;3.58;1.02;;;;;;;;;;5088220;28;20824;-66
2022/06/23 14:28:32;;;;;;;;;;;;;;;;;;5092138;28;20127;-66
2022/06/23 14:31:16;;;;;;;6.30;1.00;;;;;;;;;;5090141;28;20002;-66
2022/06/23 14:33:58;;;;;;;2.20;1.00;;;;;;;;;;5092347;28;20035;-65
2022/06/23 14:36:30;;;;;;;3.90;0.90;;;;;;;;;;5090939;28;20031;-65
2022/06/23 14:39:01;;;;;;;3.95;1.25;;;;;;;;;;5092526;28;20371;-66
2022/06/23 14:41:32;;;;;;;2.17;1.05;;;;;;;;;;5074276;28;20158;-66
2022/06/23 14:44:03;;;;;;;3.10;0.90;;;;;;;;;;5071953;28;20023;-65
2022/06/23 14:46:35;;;;;;;2.63;0.90;;;;;;;;;;5074096;28;20055;-66
2022/06/23 14:49:14;;;;;;;4.20;1.10;;;;;;;;;;5071985;28;20032;-66
2022/06/23 14:51:43;;;;;;;1.88;0.85;;;;;;;;;;5086955;28;20039;-65
2022/06/23 14:54:15;;;;;;;3.55;0.90;;;;;;;;;;5091693;28;20036;-66
2022/06/23 14:56:44;;;;;;;2.22;1.00;;;;;;;;;;5080157;28;20016;-66
2022/06/23 14:59:21;;;;;;;2.55;0.90;;;;;;;;;;5092248;28;20119;-65
2022/06/23 15:01:52;;;;;;;7.45;1.20;;;;;;;;;;5074818;28;20020;-66
2022/06/23 15:04:23;;;;;;;2.90;1.00;;;;;;;;;;5070779;28;20082;-66
2022/06/23 15:06:59;;;;;;;2.67;0.90;;;;;;;;;;5075657;28;20488;-66
2022/06/23 15:09:39;;;;;;;3.83;1.00;;;;;;;;;;5090395;28;20024;-66
2022/06/23 15:12:10;;;;;;;1.95;0.95;;;;;;;;;;5088596;28;20036;-66
2022/06/23 15:14:43;;;;;;;4.03;0.90;;;;;;;;;;5089250;28;20102;-66
2022/06/23 15:17:14;;;;;;;3.75;1.10;;;;;;;;;;5071733;28;20074;-66